Time;durP1;ratioP1;P1;durP2;ratioP2;P2;SDS_P1;SDS_P2;PMS_P1;PMS_P2;Temp;Humidity;BMP_temperature;BMP_pressure;BME280_temperature;BME280_humidity;BME280_pressure;Samples;Min_cycle;Max_cycle;Signal;HPM_P1;HPM_P2
2024/02/18 00:00:47;;;;;;;0.30;0.30;;;11.60;99.90;;;;;;5140740;28;20037;-90
2024/02/18 00:03:13;;;;;;;0.43;0.43;;;11.50;99.90;;;;;;5123000;28;20023;-91
2024/02/18 00:05:38;;;;;;;0.65;0.50;;;11.60;99.90;;;;;;5139802;28;20012;-93
2024/02/18 00:08:04;;;;;;;0.85;0.85;;;11.50;99.90;;;;;;5122062;28;20940;-94
2024/02/18 00:10:30;;;;;;;0.85;0.82;;;11.50;99.90;;;;;;5139861;28;20055;-91
2024/02/18 00:12:55;;;;;;;1.50;1.40;;;11.50;99.90;;;;;;5140408;28;20036;-94
2024/02/18 00:15:21;;;;;;;2.60;1.92;;;11.50;99.90;;;;;;5140367;28;20012;-93
2024/02/18 00:17:47;;;;;;;2.25;2.03;;;11.50;99.90;;;;;;5121176;28;20016;-90
2024/02/18 00:20:15;;;;;;;1.70;1.60;;;11.50;99.90;;;;;;5122482;28;20061;-88
2024/02/18 00:22:41;;;;;;;2.35;2.15;;;11.50;99.90;;;;;;5122168;28;20084;-90
2024/02/18 00:25:07;;;;;;;2.17;1.98;;;11.50;99.90;;;;;;5140265;28;20016;-86
2024/02/18 00:27:33;;;;;;;3.17;2.85;;;11.50;99.90;;;;;;5122425;28;20019;-88
2024/02/18 00:29:59;;;;;;;3.78;3.33;;;11.50;99.90;;;;;;5139915;28;20023;-89
2024/02/18 00:32:25;;;;;;;4.20;3.72;;;11.50;99.90;;;;;;5122313;28;20023;-90
2024/02/18 00:34:50;;;;;;;5.60;3.20;;;11.50;99.90;;;;;;5121272;28;20016;-89
2024/02/18 00:37:19;;;;;;;6.25;3.88;;;11.50;99.90;;;;;;5121580;27;21328;-87
2024/02/18 00:39:44;;;;;;;5.45;4.32;;;11.50;99.90;;;;;;5121345;28;20028;-88
2024/02/18 00:42:10;;;;;;;4.05;3.63;;;11.50;99.90;;;;;;5122362;28;20059;-90
2024/02/18 00:44:36;;;;;;;8.77;4.03;;;11.50;99.90;;;;;;5139853;28;20039;-92
2024/02/18 00:47:03;;;;;;;4.35;3.60;;;11.50;99.90;;;;;;5140032;28;20023;-92
2024/02/18 00:49:29;;;;;;;4.20;3.67;;;11.50;99.90;;;;;;5122089;28;20004;-87
2024/02/18 00:51:55;;;;;;;4.50;3.78;;;11.40;99.90;;;;;;5122204;28;20079;-90
2024/02/18 00:54:20;;;;;;;3.65;3.35;;;11.50;99.90;;;;;;5139678;28;20003;-91
2024/02/18 00:56:47;;;;;;;3.38;3.08;;;11.50;99.90;;;;;;5121878;28;20030;-91
2024/02/18 00:59:16;;;;;;;3.75;3.38;;;11.50;99.90;;;;;;5139562;28;20012;-90
2024/02/18 01:01:42;;;;;;;4.13;3.72;;;11.50;99.90;;;;;;5139100;27;20024;-90
2024/02/18 01:04:08;;;;;;;4.88;4.45;;;11.50;99.90;;;;;;5138991;27;20041;-91
2024/02/18 01:06:34;;;;;;;4.00;3.60;;;11.50;99.90;;;;;;5121640;27;20037;-90
2024/02/18 01:09:00;;;;;;;4.25;3.60;;;11.50;99.90;;;;;;5139357;27;20003;-88
2024/02/18 01:11:25;;;;;;;4.20;3.75;;;11.50;99.90;;;;;;5139393;27;20104;-89
2024/02/18 01:13:51;;;;;;;4.47;4.05;;;11.50;99.90;;;;;;5121459;27;20007;-89
2024/02/18 01:16:17;;;;;;;5.13;4.63;;;11.50;99.90;;;;;;5139278;27;20015;-90
2024/02/18 01:18:43;;;;;;;5.55;3.92;;;11.50;99.90;;;;;;5137831;27;20045;-93
2024/02/18 01:21:09;;;;;;;3.72;3.42;;;11.50;99.90;;;;;;5120910;28;20020;-88
2024/02/18 01:23:38;;;;;;;5.53;3.65;;;11.50;99.90;;;;;;5121289;28;20117;-89
2024/02/18 01:26:03;;;;;;;3.40;3.10;;;11.50;99.90;;;;;;5121228;28;20041;-86
2024/02/18 01:28:29;;;;;;;7.32;3.72;;;11.50;99.90;;;;;;5118843;28;20015;-90
2024/02/18 01:30:55;;;;;;;3.88;3.58;;;11.50;99.90;;;;;;5138840;28;20012;-91
2024/02/18 01:33:23;;;;;;;3.88;3.47;;;11.50;99.90;;;;;;5121173;28;20049;-95
2024/02/18 01:35:49;;;;;;;3.05;2.75;;;11.50;99.90;;;;;;5121296;27;19999;-93
2024/02/18 01:38:16;;;;;;;2.92;2.63;;;11.50;99.90;;;;;;5121313;28;20435;-91
2024/02/18 01:40:41;;;;;;;3.20;2.72;;;11.50;99.90;;;;;;5121093;27;20023;-92
2024/02/18 01:43:07;;;;;;;2.60;2.40;;;11.50;99.90;;;;;;5120464;28;20026;-95
2024/02/18 01:45:33;;;;;;;2.28;2.08;;;11.50;99.90;;;;;;5120087;27;20030;-92
2024/02/18 01:47:59;;;;;;;2.30;2.10;;;11.50;99.90;;;;;;5137738;27;20023;-88
2024/02/18 01:50:24;;;;;;;1.80;1.70;;;11.50;99.90;;;;;;5138714;27;20224;-93
2024/02/18 01:52:52;;;;;;;1.50;1.30;;;11.50;99.90;;;;;;5138258;28;20033;-90
2024/02/18 01:55:20;;;;;;;2.10;1.70;;;11.50;99.90;;;;;;5120894;28;20004;-93
2024/02/18 01:57:46;;;;;;;1.48;1.38;;;11.50;99.90;;;;;;5120717;28;20075;-89
2024/02/18 02:00:15;;;;;;;1.30;1.10;;;11.50;99.90;;;;;;5120932;28;20008;-92
2024/02/18 02:02:42;;;;;;;1.73;1.40;;;11.50;99.90;;;;;;5120645;28;20023;-91
2024/02/18 02:05:12;;;;;;;2.13;1.33;;;11.50;99.90;;;;;;5138226;28;20012;-91
2024/02/18 02:07:38;;;;;;;1.55;1.45;;;11.50;99.90;;;;;;5120752;28;20012;-89
2024/02/18 02:10:04;;;;;;;1.83;1.65;;;11.50;99.90;;;;;;5120824;28;20046;-88
2024/02/18 02:12:34;;;;;;;2.33;1.23;;;11.50;99.90;;;;;;5120396;28;20013;-89
2024/02/18 02:15:00;;;;;;;2.20;1.60;;;11.50;99.90;;;;;;5120794;28;20029;-89
2024/02/18 02:17:26;;;;;;;2.17;1.80;;;11.40;99.90;;;;;;5120699;28;20035;-87
2024/02/18 02:19:52;;;;;;;1.88;1.60;;;11.40;99.90;;;;;;5138066;28;20018;-89
2024/02/18 02:22:18;;;;;;;4.07;2.50;;;11.50;99.90;;;;;;5138012;28;20024;-85
2024/02/18 02:24:44;;;;;;;5.10;3.90;;;11.40;99.90;;;;;;5120676;28;20023;-86
2024/02/18 02:27:13;;;;;;;5.68;3.42;;;11.40;99.90;;;;;;5120384;28;20023;-86
2024/02/18 02:29:40;;;;;;;7.60;3.28;;;11.40;99.90;;;;;;5120211;28;20003;-86
2024/02/18 02:32:06;;;;;;;6.40;3.10;;;11.40;99.90;;;;;;5137550;28;20038;-85
2024/02/18 02:34:32;;;;;;;3.60;3.00;;;11.50;99.90;;;;;;5119941;28;20018;-85
2024/02/18 02:36:57;;;;;;;3.10;2.80;;;11.50;99.90;;;;;;5137871;27;20028;-86
2024/02/18 02:39:23;;;;;;;2.63;2.42;;;11.50;99.90;;;;;;5135255;28;20016;-86
2024/02/18 02:41:49;;;;;;;4.55;3.97;;;11.50;99.90;;;;;;5122207;28;20031;-86
2024/02/18 02:44:15;;;;;;;3.20;2.90;;;11.40;99.90;;;;;;5124313;28;20055;-84
2024/02/18 02:46:41;;;;;;;4.40;3.92;;;11.40;99.90;;;;;;5124824;28;20079;-83
2024/02/18 02:49:06;;;;;;;4.20;3.67;;;11.40;99.90;;;;;;5124442;28;20003;-84
2024/02/18 02:51:32;;;;;;;5.40;3.58;;;11.50;99.90;;;;;;5124702;28;20008;-85
2024/02/18 02:53:58;;;;;;;5.13;3.75;;;11.50;99.90;;;;;;5123809;28;20015;-87
2024/02/18 02:56:24;;;;;;;5.45;4.40;;;11.40;99.90;;;;;;5142003;28;20000;-87
2024/02/18 02:58:49;;;;;;;5.45;4.70;;;11.50;99.90;;;;;;5142037;28;20042;-86
2024/02/18 03:01:15;;;;;;;7.00;4.40;;;11.50;99.90;;;;;;5124280;28;20039;-87
2024/02/18 03:03:41;;;;;;;8.20;4.85;;;11.50;99.90;;;;;;5141698;28;20007;-88
2024/02/18 03:06:07;;;;;;;5.90;4.35;;;11.50;99.90;;;;;;5141858;28;20043;-87
2024/02/18 03:08:33;;;;;;;5.57;4.00;;;11.50;99.90;;;;;;5124073;28;20015;-88
2024/02/18 03:10:58;;;;;;;6.78;4.57;;;11.40;99.90;;;;;;5124121;28;20142;-85
2024/02/18 03:13:24;;;;;;;4.80;3.85;;;11.50;99.90;;;;;;5123878;28;20003;-86
2024/02/18 03:15:50;;;;;;;6.13;4.47;;;11.40;99.90;;;;;;5123997;28;20016;-87
2024/02/18 03:18:15;;;;;;;6.50;4.47;;;11.40;99.90;;;;;;5123756;28;20100;-89
2024/02/18 03:20:41;;;;;;;5.50;4.40;;;11.40;99.90;;;;;;5123605;28;20023;-91
2024/02/18 03:23:13;;;;;;;5.72;4.13;;;11.40;99.90;;;;;;5123666;28;20015;-90
2024/02/18 03:25:39;;;;;;;4.88;3.72;;;11.40;99.90;;;;;;5121662;28;20045;-89
2024/02/18 03:28:05;;;;;;;4.97;4.15;;;11.40;99.90;;;;;;5123841;28;20012;-91
2024/02/18 03:30:30;;;;;;;3.40;2.95;;;11.40;99.90;;;;;;5124207;28;20011;-90
2024/02/18 03:32:56;;;;;;;5.97;4.38;;;11.40;99.90;;;;;;5123590;28;20025;-90
2024/02/18 03:35:27;;;;;;;7.28;4.47;;;11.40;99.90;;;;;;5123821;28;20089;-91
2024/02/18 03:37:57;;;;;;;6.82;5.22;;;11.40;99.90;;;;;;5124012;28;20034;-88
2024/02/18 03:40:23;;;;;;;4.68;3.20;;;11.40;99.90;;;;;;5141266;28;20011;-93
2024/02/18 03:42:50;;;;;;;6.35;4.18;;;11.40;99.90;;;;;;5123459;28;20091;-90
2024/02/18 03:45:16;;;;;;;5.25;3.90;;;11.40;99.90;;;;;;5123700;28;20052;-90
2024/02/18 03:47:44;;;;;;;3.03;2.42;;;11.40;99.90;;;;;;5123702;28;20031;-90
2024/02/18 03:50:14;;;;;;;5.40;4.28;;;11.40;99.90;;;;;;5123086;28;20011;-89
2024/02/18 03:52:43;;;;;;;5.28;3.83;;;11.40;99.90;;;;;;5140949;28;20114;-91
2024/02/18 03:55:13;;;;;;;3.28;2.90;;;11.40;99.90;;;;;;5123129;28;20023;-90
2024/02/18 03:57:39;;;;;;;4.10;2.90;;;11.40;99.90;;;;;;5122882;28;20033;-93
2024/02/18 04:00:10;;;;;;;2.72;2.50;;;11.40;99.90;;;;;;5140509;28;20015;-88
2024/02/18 04:02:39;;;;;;;;;;;11.40;99.90;;;;;;5140738;28;20047;-93
2024/02/18 04:05:09;;;;;;;3.10;2.25;;;11.30;99.90;;;;;;5122870;28;19922;-92
2024/02/18 04:07:36;;;;;;;2.65;2.45;;;11.40;99.90;;;;;;5122615;28;20037;-89
2024/02/18 04:10:03;;;;;;;3.05;2.63;;;11.30;99.90;;;;;;5122734;28;20039;-91
2024/02/18 04:12:29;;;;;;;4.80;2.22;;;11.30;99.90;;;;;;5122600;28;20027;-87
2024/02/18 04:14:55;;;;;;;2.55;2.30;;;11.30;99.90;;;;;;5140290;28;20075;-90
2024/02/18 04:17:20;;;;;;;2.88;2.30;;;11.40;99.90;;;;;;5122592;28;20044;-92
2024/02/18 04:19:46;;;;;;;2.47;2.22;;;11.30;99.90;;;;;;5122499;28;20024;-90
2024/02/18 04:22:12;;;;;;;4.25;2.85;;;11.30;99.90;;;;;;5122248;28;20020;-92
2024/02/18 04:24:40;;;;;;;7.38;2.95;;;11.30;99.90;;;;;;5122296;28;20042;-92
2024/02/18 04:27:10;;;;;;;4.47;2.78;;;11.30;99.90;;;;;;5122197;28;20038;-94
2024/02/18 04:29:37;;;;;;;2.55;2.20;;;11.40;99.90;;;;;;5114690;28;20023;-93
2024/02/18 04:32:04;;;;;;;4.28;2.40;;;11.30;99.90;;;;;;5137477;28;20031;-95
2024/02/18 04:34:30;;;;;;;3.80;1.98;;;11.30;99.90;;;;;;5111946;28;20119;-95
2024/02/18 04:36:56;;;;;;;2.60;1.98;;;11.40;99.90;;;;;;5115200;28;20032;-95
2024/02/18 04:39:22;;;;;;;3.85;2.42;;;11.30;99.90;;;;;;5118509;28;20019;-94
2024/02/18 04:41:47;;;;;;;6.57;2.40;;;11.30;99.90;;;;;;5137233;28;20039;-96
2024/02/18 04:44:13;;;;;;;2.63;2.20;;;11.30;99.90;;;;;;5117748;28;20035;-96
2024/02/18 04:46:39;;;;;;;3.15;2.40;;;11.30;99.90;;;;;;5135653;28;20018;-92
2024/02/18 04:49:06;;;;;;;3.17;2.20;;;11.30;99.90;;;;;;5121657;28;20020;-90
2024/02/18 04:51:31;;;;;;;2.42;1.77;;;11.30;99.90;;;;;;5121777;28;20016;-91
2024/02/18 04:53:57;;;;;;;1.23;1.10;;;11.30;99.90;;;;;;5121857;28;20030;-91
2024/02/18 04:56:23;;;;;;;0.70;0.70;;;11.30;99.90;;;;;;5121971;28;20096;-92
2024/02/18 04:58:50;;;;;;;1.95;0.85;;;11.30;99.90;;;;;;5139689;28;20018;-91
2024/02/18 05:01:16;;;;;;;2.35;0.57;;;11.30;99.90;;;;;;5122020;28;20031;-96
2024/02/18 05:03:41;;;;;;;0.65;0.55;;;11.30;99.90;;;;;;5117100;28;20032;-96
2024/02/18 05:06:11;;;;;;;0.30;0.30;;;11.30;99.90;;;;;;5116878;28;20028;-95
2024/02/18 05:08:38;;;;;;;2.22;0.43;;;11.20;99.90;;;;;;5121589;28;20040;-94
2024/02/18 05:11:04;;;;;;;0.28;0.28;;;11.30;99.90;;;;;;5102989;28;20079;-96
2024/02/18 05:13:30;;;;;;;0.38;0.10;;;11.20;99.90;;;;;;5116584;28;20014;-94
2024/02/18 05:15:56;;;;;;;0.10;0.10;;;11.20;99.90;;;;;;5119189;28;20077;-92
2024/02/18 05:18:22;;;;;;;1.58;0.22;;;11.30;99.90;;;;;;5122241;28;20024;-89
2024/02/18 05:20:49;;;;;;;0.20;0.20;;;11.20;99.90;;;;;;5121887;28;20012;-91
2024/02/18 05:23:15;;;;;;;0.95;0.43;;;11.20;99.90;;;;;;5139820;28;20019;-90
2024/02/18 05:25:41;;;;;;;0.93;0.20;;;11.20;99.90;;;;;;5122065;28;20019;-93
2024/02/18 05:28:07;;;;;;;0.25;0.20;;;11.20;99.90;;;;;;5120908;28;20019;-91
2024/02/18 05:30:33;;;;;;;0.17;0.13;;;11.20;99.90;;;;;;5121497;28;20031;-88
2024/02/18 05:32:59;;;;;;;0.30;0.30;;;11.20;99.90;;;;;;5121452;28;20032;-88
2024/02/18 05:35:25;;;;;;;0.30;0.10;;;11.20;99.90;;;;;;5120920;28;20024;-95
2024/02/18 05:37:51;;;;;;;0.40;0.17;;;11.20;99.90;;;;;;5114686;28;20073;-96
2024/02/18 05:40:17;;;;;;;0.70;0.20;;;11.20;99.90;;;;;;5119458;28;20040;-92
2024/02/18 05:42:43;;;;;;;0.40;0.40;;;11.20;99.90;;;;;;5121176;28;20035;-94
2024/02/18 05:45:10;;;;;;;0.35;0.22;;;11.20;99.90;;;;;;5121432;28;20047;-94
2024/02/18 05:47:35;;;;;;;0.40;0.30;;;11.20;99.90;;;;;;5121534;28;20032;-91
2024/02/18 05:50:01;;;;;;;0.30;0.30;;;11.20;99.90;;;;;;5120873;28;20099;-92
2024/02/18 05:52:27;;;;;;;0.20;0.20;;;11.20;99.90;;;;;;5107854;28;20017;-92
2024/02/18 05:54:53;;;;;;;1.00;0.32;;;11.20;99.90;;;;;;5117383;28;20012;-89
2024/02/18 05:57:19;;;;;;;2.03;0.45;;;11.20;99.90;;;;;;5100876;28;20087;-91
2024/02/18 05:59:45;;;;;;;0.65;0.40;;;11.20;99.90;;;;;;5119389;28;20020;-85
2024/02/18 06:02:10;;;;;;;0.90;0.55;;;11.20;99.90;;;;;;5121314;28;20086;-87
2024/02/18 06:04:36;;;;;;;0.40;0.40;;;11.10;99.90;;;;;;5117217;28;20020;-94
2024/02/18 06:07:02;;;;;;;0.70;0.70;;;11.10;99.90;;;;;;5112667;28;20024;-92
2024/02/18 06:09:27;;;;;;;0.60;0.47;;;11.10;99.90;;;;;;5133435;28;20045;-91
2024/02/18 06:11:53;;;;;;;0.47;0.47;;;11.10;99.90;;;;;;5113683;28;20020;-89
2024/02/18 06:14:20;;;;;;;0.90;0.90;;;11.10;99.90;;;;;;5100396;28;20021;-94
2024/02/18 06:16:45;;;;;;;0.70;0.70;;;11.10;99.90;;;;;;5099073;28;20028;-93
2024/02/18 06:19:11;;;;;;;1.30;0.82;;;11.10;99.90;;;;;;5100414;28;20016;-87
2024/02/18 06:21:37;;;;;;;1.02;0.75;;;11.10;99.90;;;;;;5099935;28;20016;-90
2024/02/18 06:24:06;;;;;;;0.60;0.60;;;11.10;99.90;;;;;;5118124;28;20012;-89
2024/02/18 06:26:32;;;;;;;1.40;1.10;;;11.10;99.90;;;;;;5117550;28;20024;-89
2024/02/18 06:28:58;;;;;;;0.88;0.68;;;11.10;99.90;;;;;;5113935;28;20043;-90
2024/02/18 06:31:24;;;;;;;0.98;0.88;;;11.00;99.90;;;;;;5117306;28;20031;-90
2024/02/18 06:33:50;;;;;;;1.05;0.95;;;11.10;99.90;;;;;;5117637;28;20016;-90
2024/02/18 06:36:16;;;;;;;0.93;0.70;;;11.00;99.90;;;;;;5106640;28;20159;-90
2024/02/18 06:38:42;;;;;;;0.80;0.80;;;11.00;99.90;;;;;;5117749;28;20016;-87
2024/02/18 06:41:09;;;;;;;1.20;1.10;;;11.00;99.90;;;;;;5117955;28;20028;-88
2024/02/18 06:43:35;;;;;;;1.10;0.98;;;11.00;99.90;;;;;;5116726;28;20038;-87
2024/02/18 06:46:04;;;;;;;1.80;1.10;;;11.00;99.90;;;;;;5117145;28;20047;-87
2024/02/18 06:48:30;;;;;;;1.10;0.90;;;11.00;99.90;;;;;;5100897;28;20019;-88
2024/02/18 06:50:56;;;;;;;2.28;1.20;;;10.90;99.90;;;;;;5118249;28;20021;-87
2024/02/18 06:53:22;;;;;;;3.13;1.10;;;10.90;99.90;;;;;;5118072;28;20016;-84
2024/02/18 06:55:48;;;;;;;2.90;1.30;;;10.90;99.90;;;;;;5117533;28;20019;-88
2024/02/18 06:58:16;;;;;;;3.03;1.45;;;10.90;99.90;;;;;;5117560;28;20027;-90
2024/02/18 07:00:42;;;;;;;1.50;1.40;;;10.90;99.90;;;;;;5117912;28;20012;-90
2024/02/18 07:03:07;;;;;;;3.42;1.25;;;10.80;99.90;;;;;;5117132;28;20036;-88
2024/02/18 07:05:33;;;;;;;2.22;1.80;;;10.80;99.90;;;;;;5117181;28;20063;-89
2024/02/18 07:07:59;;;;;;;1.70;1.60;;;10.80;99.90;;;;;;5117344;28;20023;-90
2024/02/18 07:10:25;;;;;;;1.45;1.35;;;10.80;99.90;;;;;;5117304;28;20032;-89
2024/02/18 07:12:51;;;;;;;2.25;1.77;;;10.80;99.90;;;;;;5117649;28;20024;-88
2024/02/18 07:15:17;;;;;;;2.30;1.83;;;10.80;99.90;;;;;;5117352;28;20016;-89
2024/02/18 07:17:42;;;;;;;4.07;1.25;;;10.90;99.90;;;;;;5116927;28;20103;-91
2024/02/18 07:20:13;;;;;;;1.75;1.23;;;10.90;99.90;;;;;;5116950;28;20048;-88
2024/02/18 07:22:39;;;;;;;1.40;1.13;;;10.80;99.90;;;;;;5100382;28;20034;-89
2024/02/18 07:25:06;;;;;;;1.35;1.25;;;10.80;99.90;;;;;;5117022;28;20036;-86
2024/02/18 07:27:32;;;;;;;2.60;1.27;;;10.90;99.90;;;;;;5118699;28;20014;-89
2024/02/18 07:29:58;;;;;;;2.03;1.33;;;10.90;99.90;;;;;;5121078;28;20040;-89
2024/02/18 07:32:24;;;;;;;2.80;1.55;;;10.90;99.90;;;;;;5121447;28;20023;-91
2024/02/18 07:34:50;;;;;;;1.90;1.10;;;10.80;99.90;;;;;;5140693;28;20018;-90
2024/02/18 07:37:15;;;;;;;5.63;1.35;;;10.90;99.90;;;;;;5123160;28;20026;-88
2024/02/18 07:39:42;;;;;;;1.45;1.20;;;10.80;99.90;;;;;;5121870;28;20034;-88
2024/02/18 07:42:08;;;;;;;2.50;1.50;;;10.80;99.90;;;;;;5141364;28;20069;-88
2024/02/18 07:44:33;;;;;;;6.35;2.13;;;10.80;99.90;;;;;;5123338;28;20031;-90
2024/02/18 07:46:59;;;;;;;3.80;1.60;;;10.80;99.90;;;;;;5121608;28;20054;-89
2024/02/18 07:49:25;;;;;;;2.95;1.65;;;10.70;99.90;;;;;;5115152;28;20032;-90
2024/02/18 07:51:50;;;;;;;5.43;1.90;;;10.70;99.90;;;;;;5121562;28;20038;-88
2024/02/18 07:54:19;;;;;;;2.45;1.58;;;10.70;99.90;;;;;;5120903;28;20007;-89
2024/02/18 07:56:46;;;;;;;2.20;1.80;;;10.70;99.90;;;;;;5122273;28;20012;-89
2024/02/18 07:59:13;;;;;;;5.50;1.80;;;10.70;99.90;;;;;;5118011;28;20012;-87
2024/02/18 08:01:38;;;;;;;3.90;2.25;;;10.70;99.90;;;;;;5121834;28;20095;-88
2024/02/18 08:04:04;;;;;;;8.73;3.70;;;10.70;99.90;;;;;;5138368;28;20078;-90
2024/02/18 08:06:31;;;;;;;8.57;3.40;;;10.60;99.90;;;;;;5122700;28;20066;-90
2024/02/18 08:08:58;;;;;;;5.47;3.20;;;10.60;99.90;;;;;;5122146;28;20012;-88
2024/02/18 08:11:24;;;;;;;5.97;3.20;;;10.60;99.90;;;;;;5122604;28;20008;-89
2024/02/18 08:13:51;;;;;;;7.90;3.53;;;10.60;99.90;;;;;;5122786;28;20014;-91
2024/02/18 08:16:20;;;;;;;5.85;3.67;;;10.60;99.90;;;;;;5119403;28;20038;-90
2024/02/18 08:18:46;;;;;;;4.32;3.08;;;10.60;99.90;;;;;;5135031;27;20015;-88
2024/02/18 08:21:12;;;;;;;9.77;4.35;;;10.60;99.90;;;;;;5122161;28;20003;-89
2024/02/18 08:23:37;;;;;;;7.55;4.00;;;10.60;99.90;;;;;;5121877;28;20023;-91
2024/02/18 08:26:03;;;;;;;6.50;3.83;;;10.60;99.90;;;;;;5121675;28;20030;-92
2024/02/18 08:28:29;;;;;;;7.25;3.83;;;10.60;99.90;;;;;;5139879;28;20008;-88
2024/02/18 08:30:56;;;;;;;9.10;3.90;;;10.60;99.90;;;;;;5139560;28;20078;-91
2024/02/18 08:33:22;;;;;;;9.10;3.75;;;10.50;99.90;;;;;;5139890;28;20011;-91
2024/02/18 08:35:49;;;;;;;9.20;3.78;;;10.50;99.90;;;;;;5121724;28;20023;-90
2024/02/18 08:38:15;;;;;;;5.28;3.97;;;10.50;99.90;;;;;;5121726;28;20049;-89
2024/02/18 08:40:41;;;;;;;8.95;4.32;;;10.50;99.90;;;;;;5121498;28;20031;-90
2024/02/18 08:43:07;;;;;;;5.85;4.22;;;10.50;99.90;;;;;;5116662;28;20024;-89
2024/02/18 08:45:33;;;;;;;9.50;4.28;;;10.60;99.90;;;;;;5101367;28;20043;-88
2024/02/18 08:47:59;;;;;;;9.30;4.38;;;10.60;99.90;;;;;;5098705;28;20024;-89
2024/02/18 08:50:26;;;;;;;8.88;4.93;;;10.50;99.90;;;;;;5098265;28;20035;-89
2024/02/18 08:52:51;;;;;;;11.70;5.60;;;10.50;99.90;;;;;;5097316;28;20032;-89
2024/02/18 08:55:17;;;;;;;10.63;4.80;;;10.50;99.90;;;;;;5097922;28;20005;-89
2024/02/18 08:57:43;;;;;;;10.30;5.00;;;10.50;99.90;;;;;;5098122;28;20020;-90
2024/02/18 09:00:10;;;;;;;8.20;4.93;;;10.50;99.90;;;;;;5097531;28;20033;-91
2024/02/18 09:02:36;;;;;;;12.85;4.57;;;10.50;99.90;;;;;;5097082;28;20029;-87
2024/02/18 09:05:02;;;;;;;9.65;4.95;;;10.50;99.90;;;;;;5097198;28;20039;-90
2024/02/18 09:07:30;;;;;;;10.48;4.93;;;10.50;99.90;;;;;;5098611;28;20066;-88
2024/02/18 09:09:56;;;;;;;7.32;4.18;;;10.60;99.90;;;;;;5098166;28;20027;-91
2024/02/18 09:12:21;;;;;;;9.02;3.85;;;10.50;99.90;;;;;;5097059;28;20028;-90
2024/02/18 09:14:47;;;;;;;10.88;4.22;;;10.60;99.90;;;;;;5098256;28;20019;-91
2024/02/18 09:17:13;;;;;;;8.80;3.75;;;10.60;99.90;;;;;;5097926;28;20019;-92
2024/02/18 09:19:39;;;;;;;9.43;3.60;;;10.60;99.90;;;;;;5097847;28;20080;-91
2024/02/18 09:22:06;;;;;;;8.38;3.05;;;10.60;99.90;;;;;;5090306;28;20055;-92
2024/02/18 09:24:32;;;;;;;7.28;2.85;;;10.60;99.90;;;;;;5096810;28;20013;-88
2024/02/18 09:26:57;;;;;;;8.82;2.40;;;10.60;99.90;;;;;;5097443;28;20012;-88
2024/02/18 09:29:27;;;;;;;9.90;3.33;;;10.60;99.90;;;;;;5098133;28;20031;-87
2024/02/18 09:31:53;;;;;;;4.10;1.90;;;10.60;99.90;;;;;;5095430;28;20009;-87
2024/02/18 09:34:18;;;;;;;7.20;3.03;;;10.60;99.90;;;;;;5097442;28;20008;-86
2024/02/18 09:36:44;;;;;;;15.32;3.35;;;10.60;99.90;;;;;;5096621;28;20020;-88
2024/02/18 09:39:11;;;;;;;9.57;2.70;;;10.70;99.90;;;;;;5097540;28;20040;-88
2024/02/18 09:41:38;;;;;;;8.23;2.90;;;10.70;99.90;;;;;;5095053;28;20024;-91
2024/02/18 09:44:05;;;;;;;9.35;3.45;;;10.70;99.90;;;;;;5106331;28;20042;-86
2024/02/18 09:46:34;;;;;;;13.93;4.05;;;10.70;99.90;;;;;;5120701;28;20030;-87
2024/02/18 09:49:00;;;;;;;9.40;2.85;;;10.80;99.90;;;;;;5120407;28;20007;-85
2024/02/18 09:51:27;;;;;;;9.60;3.05;;;10.80;99.90;;;;;;5118860;28;20361;-85
2024/02/18 09:53:54;;;;;;;13.85;3.75;;;10.80;99.90;;;;;;5132121;27;20012;-87
2024/02/18 09:56:20;;;;;;;10.48;3.70;;;10.80;99.90;;;;;;5119876;28;20023;-87
2024/02/18 09:58:46;;;;;;;13.32;4.78;;;10.90;99.90;;;;;;5120587;28;20023;-86
2024/02/18 10:01:15;;;;;;;13.10;3.70;;;10.90;99.90;;;;;;5137402;28;20008;-86
2024/02/18 10:03:41;;;;;;;13.88;3.75;;;10.90;99.90;;;;;;5114466;28;20030;-85
2024/02/18 10:06:06;;;;;;;9.95;3.55;;;11.00;99.90;;;;;;5138241;28;20004;-88
2024/02/18 10:08:51;;;;;;;14.68;5.03;;;11.00;99.90;;;;;;5120379;28;20025;-86
2024/02/18 10:11:21;;;;;;;14.80;4.93;;;11.10;99.90;;;;;;5132139;28;20035;-86
2024/02/18 10:13:48;;;;;;;15.48;4.35;;;11.10;99.90;;;;;;5117149;28;20004;-86
2024/02/18 10:16:17;;;;;;;13.27;4.90;;;11.10;99.90;;;;;;5120309;28;20016;-84
2024/02/18 10:18:43;;;;;;;16.35;5.15;;;11.10;99.90;;;;;;5120178;28;20004;-86
2024/02/18 10:21:11;;;;;;;14.32;4.20;;;11.20;99.90;;;;;;5119300;28;20041;-86
2024/02/18 10:23:41;;;;;;;13.60;3.80;;;11.20;99.90;;;;;;5119700;28;20031;-87
2024/02/18 10:26:07;;;;;;;10.35;3.45;;;11.20;99.90;;;;;;5120217;28;20012;-85
2024/02/18 10:28:37;;;;;;;7.82;3.30;;;11.20;99.90;;;;;;5120223;28;20031;-86
2024/02/18 10:31:04;;;;;;;16.70;3.08;;;11.20;99.90;;;;;;5119486;28;20027;-86
2024/02/18 10:33:31;;;;;;;15.55;2.92;;;11.20;99.90;;;;;;5137036;28;20023;-86
2024/02/18 10:36:02;;;;;;;10.63;2.55;;;11.20;99.90;;;;;;5137699;28;20020;-85
2024/02/18 10:38:30;;;;;;;13.38;2.45;;;11.20;99.90;;;;;;5137781;28;20004;-87
2024/02/18 10:41:07;;;;;;;9.48;3.15;;;11.20;99.90;;;;;;5119929;28;20049;-85
2024/02/18 10:43:40;;;;;;;13.52;2.60;;;11.20;99.90;;;;;;5135541;28;20049;-86
2024/02/18 10:46:07;;;;;;;16.85;2.45;;;11.20;99.90;;;;;;5119925;28;20015;-89
2024/02/18 10:48:36;;;;;;;13.38;3.50;;;11.20;99.90;;;;;;5119972;28;20008;-86
2024/02/18 10:51:04;;;;;;;11.55;2.75;;;11.30;99.90;;;;;;5119992;28;20034;-84
2024/02/18 10:53:35;;;;;;;11.98;2.78;;;11.20;99.90;;;;;;5137396;28;20004;-86
2024/02/18 10:56:20;;;;;;;17.27;2.88;;;11.20;99.90;;;;;;5119701;28;20023;-85
2024/02/18 10:58:57;;;;;;;17.48;5.05;;;11.20;99.90;;;;;;5119689;28;20034;-86
2024/02/18 11:01:25;;;;;;;18.02;3.28;;;11.20;99.90;;;;;;5137399;28;20020;-85
2024/02/18 11:03:56;;;;;;;9.57;2.75;;;11.20;99.90;;;;;;5123793;28;20007;-87
2024/02/18 11:06:22;;;;;;;13.88;2.50;;;11.20;99.90;;;;;;5106733;28;20047;-90
2024/02/18 11:08:51;;;;;;;13.65;3.15;;;11.10;99.90;;;;;;5141234;28;20016;-87
2024/02/18 11:11:17;;;;;;;14.05;3.20;;;11.10;99.90;;;;;;5123672;28;20030;-86
2024/02/18 11:13:44;;;;;;;9.38;2.78;;;11.10;99.90;;;;;;5141348;28;20034;-86
2024/02/18 11:16:10;;;;;;;16.83;3.90;;;11.10;99.90;;;;;;5123375;28;20019;-85
2024/02/18 11:18:40;;;;;;;13.32;3.05;;;11.10;99.90;;;;;;5141302;28;20020;-85
2024/02/18 11:21:06;;;;;;;10.75;2.70;;;11.10;99.90;;;;;;5141091;28;20034;-85
2024/02/18 11:23:33;;;;;;;16.30;3.28;;;11.10;99.90;;;;;;5123531;28;20083;-86
2024/02/18 11:25:59;;;;;;;13.73;3.00;;;11.10;99.90;;;;;;5123369;28;20059;-85
2024/02/18 11:28:25;;;;;;;13.18;3.92;;;11.10;99.90;;;;;;5141216;28;20007;-87
2024/02/18 11:30:51;;;;;;;16.83;3.58;;;11.10;99.90;;;;;;5123320;28;20079;-84
2024/02/18 11:33:17;;;;;;;15.52;2.88;;;11.10;99.90;;;;;;5140895;28;20031;-87
2024/02/18 11:35:43;;;;;;;19.05;3.03;;;11.10;99.90;;;;;;5123255;28;20015;-86
2024/02/18 11:38:09;;;;;;;16.10;3.53;;;11.20;99.90;;;;;;5141112;28;20072;-87
2024/02/18 11:40:47;;;;;;;14.57;3.33;;;11.20;99.90;;;;;;5122826;28;20026;-85
2024/02/18 11:43:14;;;;;;;13.32;2.78;;;11.20;99.90;;;;;;5138977;28;20050;-87
2024/02/18 11:45:46;;;;;;;15.23;3.42;;;11.30;99.90;;;;;;5123234;28;20053;-87
2024/02/18 11:48:12;;;;;;;15.15;3.65;;;11.30;99.90;;;;;;5123318;28;20016;-88
2024/02/18 11:50:39;;;;;;;16.25;3.53;;;11.40;99.90;;;;;;5123302;28;20003;-88
2024/02/18 11:53:06;;;;;;;10.55;3.20;;;11.40;99.90;;;;;;5123465;28;20087;-89
2024/02/18 11:55:33;;;;;;;15.82;4.00;;;11.50;99.90;;;;;;5140736;28;20055;-93
2024/02/18 11:57:59;;;;;;;21.17;3.60;;;11.60;99.90;;;;;;5122634;28;20016;-86
2024/02/18 12:00:25;;;;;;;15.30;3.75;;;11.50;99.90;;;;;;5140676;28;20023;-86
2024/02/18 12:02:52;;;;;;;21.33;3.20;;;11.60;99.90;;;;;;5123055;28;20043;-86
2024/02/18 12:05:22;;;;;;;15.43;4.38;;;11.70;99.90;;;;;;5137126;27;20019;-86
2024/02/18 12:07:50;;;;;;;20.23;3.42;;;11.70;99.90;;;;;;5138831;28;20031;-84
2024/02/18 12:10:19;;;;;;;14.98;6.05;;;11.80;99.90;;;;;;5120273;28;20023;-83
2024/02/18 12:12:45;;;;;;;15.95;2.60;;;11.90;99.90;;;;;;5139979;28;20067;-87
2024/02/18 12:15:25;;;;;;;16.95;3.45;;;12.20;99.90;;;;;;5120972;28;20023;-86
2024/02/18 12:17:54;;;;;;;12.80;3.38;;;12.30;99.90;;;;;;5136331;27;20133;-87
2024/02/18 12:20:23;;;;;;;16.10;3.45;;;12.50;99.90;;;;;;5139686;27;20071;-87
2024/02/18 12:22:48;;;;;;;18.90;3.13;;;12.70;99.90;;;;;;5121396;28;20047;-88
2024/02/18 12:25:14;;;;;;;16.27;3.13;;;12.80;99.90;;;;;;5121669;28;20036;-88
2024/02/18 12:27:40;;;;;;;19.17;4.30;;;12.90;99.90;;;;;;5120278;28;20035;-91
2024/02/18 12:30:07;;;;;;;17.85;3.30;;;13.00;99.90;;;;;;5104713;27;20022;-86
2024/02/18 12:32:36;;;;;;;12.30;3.08;;;13.00;99.90;;;;;;5104579;28;20008;-90
2024/02/18 12:35:05;;;;;;;13.48;2.92;;;13.00;99.90;;;;;;5120676;28;20035;-92
2024/02/18 12:37:34;;;;;;;16.80;3.05;;;13.00;99.90;;;;;;5116330;28;20122;-94
2024/02/18 12:40:00;;;;;;;21.73;3.08;;;13.00;99.90;;;;;;5132751;28;20026;-87
2024/02/18 12:42:26;;;;;;;13.60;2.53;;;13.00;99.90;;;;;;5121440;28;20024;-88